Time;durP1;ratioP1;P1;durP2;ratioP2;P2;SDS_P1;SDS_P2;PMS_P1;PMS_P2;Temp;Humidity;BMP_temperature;BMP_pressure;BME280_temperature;BME280_humidity;BME280_pressure;Samples;Min_cycle;Max_cycle;Signal;HPM_P1;HPM_P2
2022/02/06 00:00:03;;;;;;;3.00;1.40;;;;;;;5.10;55.58;96150.19;5009060;28;20226;-83
2022/02/06 00:02:34;;;;;;;2.10;1.40;;;;;;;5.00;55.61;96146.00;5010460;28;20203;-83
2022/02/06 00:05:01;;;;;;;2.47;1.50;;;;;;;5.03;55.48;96138.88;5009376;28;20722;-82
2022/02/06 00:07:30;;;;;;;3.47;1.60;;;;;;;4.97;55.87;96133.50;5010300;28;20269;-83
2022/02/06 00:09:56;;;;;;;2.93;2.07;;;;;;;5.02;55.64;96131.34;5011853;28;20562;-83
2022/02/06 00:12:23;;;;;;;2.23;1.70;;;;;;;5.08;55.27;96124.00;5013743;28;20245;-82
2022/02/06 00:14:49;;;;;;;2.47;1.60;;;;;;;5.01;55.43;96120.34;5011000;28;20199;-81
2022/02/06 00:17:15;;;;;;;2.60;1.70;;;;;;;4.98;55.78;96119.81;5013444;28;20218;-82
2022/02/06 00:19:43;;;;;;;2.50;1.70;;;;;;;4.93;56.15;96111.72;5012588;28;20223;-83
2022/02/06 00:22:12;;;;;;;3.73;1.63;;;;;;;4.94;56.27;96118.44;5012747;28;20203;-84
2022/02/06 00:24:45;;;;;;;2.97;1.83;;;;;;;4.99;55.79;96106.91;5012607;28;20690;-82
2022/02/06 00:27:23;;;;;;;3.47;1.60;;;;;;;4.89;56.09;96111.16;5011204;28;20222;-85
2022/02/06 00:29:54;;;;;;;2.00;1.40;;;;;;;4.83;56.36;96106.56;5012150;28;20725;-82
2022/02/06 00:32:31;;;;;;;3.00;1.53;;;;;;;4.79;56.82;96100.94;5006422;28;20195;-84
2022/02/06 00:38:23;;;;;;;1.73;1.60;;;;;;;4.75;56.65;96097.03;5085548;27;20562;-83
2022/02/06 00:41:11;;;;;;;3.17;1.50;;;;;;;4.57;56.94;96090.09;5083811;28;20273;-83
2022/02/06 00:43:38;;;;;;;2.23;1.43;;;;;;;4.49;57.40;96086.41;5082964;28;20261;-83
2022/02/06 00:46:07;;;;;;;3.03;1.67;;;;;;;4.51;57.00;96071.81;5087547;28;20208;-83
2022/02/06 00:48:37;;;;;;;2.60;1.57;;;;;;;4.46;57.08;96073.94;5087179;28;20231;-83
2022/02/06 00:51:09;;;;;;;1.70;1.30;;;;;;;4.44;57.61;96075.78;5086958;28;20617;-82
2022/02/06 00:53:36;;;;;;;4.17;1.70;;;;;;;4.55;57.00;96072.38;5087150;28;20816;-83
2022/02/06 00:56:03;;;;;;;2.73;1.60;;;;;;;4.55;57.13;96074.91;5086624;28;20709;-83
2022/02/06 00:58:30;;;;;;;2.50;1.33;;;;;;;4.60;57.21;96072.00;5086672;28;20282;-83
2022/02/06 01:00:57;;;;;;;1.53;1.40;;;;;;;4.64;57.04;96070.78;5086770;28;20230;-83
2022/02/06 01:03:23;;;;;;;3.47;1.50;;;;;;;4.66;56.69;96067.16;5080492;28;20296;-83
2022/02/06 01:05:49;;;;;;;2.17;1.43;;;;;;;4.65;57.08;96078.31;5087135;28;20246;-83
2022/02/06 01:08:16;;;;;;;2.87;1.43;;;;;;;4.73;56.98;96065.72;5086748;28;20223;-83
2022/02/06 01:10:44;;;;;;;2.80;1.40;;;;;;;4.75;56.92;96076.63;5086449;28;20245;-83
2022/02/06 01:13:20;;;;;;;2.87;1.60;;;;;;;4.73;57.16;96060.63;5087144;28;20583;-82
2022/02/06 01:15:52;;;;;;;1.93;1.33;;;;;;;4.74;56.61;96069.09;5086863;28;20710;-84
2022/02/06 01:18:25;;;;;;;4.40;1.40;;;;;;;4.70;57.27;96058.34;5085617;27;20223;-83
2022/02/06 01:20:59;;;;;;;3.40;1.30;;;;;;;4.68;57.17;96062.75;5086672;28;20291;-84
2022/02/06 01:23:29;;;;;;;1.50;1.30;;;;;;;4.58;57.34;96061.91;5080448;28;20188;-82
2022/02/06 01:26:01;;;;;;;2.07;1.47;;;;;;;4.56;57.69;96052.78;5086736;28;20196;-83
2022/02/06 01:28:34;;;;;;;2.97;1.40;;;;;;;4.62;57.77;96053.06;5080032;28;20232;-83
2022/02/06 01:31:08;;;;;;;2.23;1.50;;;;;;;4.61;57.50;96060.84;5086710;28;20204;-84
2022/02/06 01:33:40;;;;;;;3.17;1.33;;;;;;;4.68;57.41;96056.84;5086999;28;20219;-83
2022/02/06 01:36:13;;;;;;;4.07;1.70;;;;;;;4.73;57.78;96055.53;5086648;28;20238;-82
2022/02/06 01:39:00;;;;;;;3.70;1.50;;;;;;;4.83;57.13;96055.53;5087118;28;20231;-82
2022/02/06 01:41:32;;;;;;;2.40;1.57;;;;;;;4.76;57.63;96051.91;5086999;28;20192;-84
2022/02/06 01:44:03;;;;;;;3.13;1.40;;;;;;;4.77;58.13;96050.97;5086602;28;20281;-83
2022/02/06 01:46:43;;;;;;;3.63;1.40;;;;;;;4.74;57.92;96046.13;5080651;28;20265;-83
2022/02/06 02:00:38;;;;;;;3.37;1.10;;;;;;;4.91;57.91;96026.84;5072377;28;20251;-81
2022/02/06 02:00:44;;;;;;;3.40;1.40;;;;;;;4.93;57.94;96025.78;5072391;28;20295;-84
2022/02/06 02:03:15;;;;;;;2.80;1.30;;;;;;;4.93;57.68;96025.78;5072837;28;20232;-83
2022/02/06 02:11:41;;;;;;;2.83;1.30;;;;;;;4.86;58.29;96017.03;5072590;28;20193;-83
2022/02/06 02:14:23;;;;;;;5.43;1.30;;;;;;;4.96;57.51;96025.53;5072956;28;20215;-83
2022/02/06 02:22:51;;;;;;;2.03;1.20;;;;;;;4.92;58.08;96016.50;5072916;28;20204;-82
2022/02/06 02:25:39;;;;;;;2.60;1.47;;;;;;;4.98;58.29;96010.91;5072040;28;20196;-83
2022/02/06 02:28:28;;;;;;;4.60;1.87;;;;;;;4.95;57.93;96006.06;5070954;28;20267;-83
2022/02/06 02:31:19;;;;;;;2.63;1.30;;;;;;;4.91;58.51;96012.34;5069054;28;20203;-82
2022/02/06 02:45:09;;;;;;;2.70;1.33;;;;;;;4.91;58.75;95996.22;5066541;28;20216;-84
2022/02/06 02:47:37;;;;;;;2.90;1.63;;;;;;;4.97;58.31;95990.63;5071428;28;20244;-82
2022/02/06 02:50:11;;;;;;;5.53;1.20;;;;;;;4.81;58.70;95983.47;5070538;28;20221;-83
2022/02/06 02:52:50;;;;;;;4.60;1.30;;;;;;;4.79;58.63;95978.50;5071353;28;20201;-83
2022/02/06 02:55:33;;;;;;;5.17;1.43;;;;;;;4.73;59.33;95973.09;5071388;28;20201;-83
2022/02/06 02:58:16;;;;;;;2.50;1.47;;;;;;;4.75;59.12;95976.34;5070767;28;20726;-83
2022/02/06 03:00:51;;;;;;;4.60;1.50;;;;;;;4.65;59.01;95981.41;5065189;28;20260;-82
2022/02/06 03:03:22;;;;;;;5.73;1.60;;;;;;;4.60;59.35;95978.44;5071084;28;20196;-83
2022/02/06 03:05:50;;;;;;;4.60;1.70;;;;;;;4.73;59.33;95973.09;5071486;28;20197;-83
2022/02/06 03:08:18;;;;;;;1.87;1.40;;;;;;;4.83;58.99;95977.28;5070374;28;20220;-83
2022/02/06 03:10:46;;;;;;;3.53;1.40;;;;;;;4.79;59.16;95980.25;5071592;28;20201;-83
2022/02/06 03:13:16;;;;;;;2.07;1.20;;;;;;;4.83;59.18;95973.91;5071787;28;20201;-83
2022/02/06 03:15:46;;;;;;;3.23;1.30;;;;;;;4.90;58.83;95971.66;5071552;28;20208;-84
2022/02/06 03:18:18;;;;;;;3.93;1.63;;;;;;;4.89;58.49;95980.25;5070297;28;20324;-83
2022/02/06 03:20:45;;;;;;;2.17;1.40;;;;;;;4.93;58.29;95971.41;5071572;28;20197;-83
2022/02/06 03:23:13;;;;;;;3.90;1.50;;;;;;;4.85;58.53;95977.16;5070667;28;20204;-83
2022/02/06 03:25:47;;;;;;;4.37;1.40;;;;;;;4.78;59.07;95976.06;5070909;28;20263;-82
2022/02/06 03:28:15;;;;;;;2.60;1.20;;;;;;;4.83;58.56;95972.16;5069308;28;20220;-83
2022/02/06 03:30:42;;;;;;;3.27;1.33;;;;;;;4.74;59.09;95972.16;5070832;28;20577;-83
2022/02/06 03:33:09;;;;;;;6.73;1.77;;;;;;;4.78;58.89;95965.88;5070796;28;20262;-83
2022/02/06 03:35:36;;;;;;;1.73;1.10;;;;;;;4.82;58.60;95965.44;5070966;28;20197;-83
2022/02/06 03:38:02;;;;;;;2.53;1.20;;;;;;;4.91;58.71;95971.53;5070383;28;20224;-83
2022/02/06 03:40:34;;;;;;;2.30;1.00;;;;;;;4.91;58.55;95957.97;5069973;28;20224;-82
2022/02/06 03:43:05;;;;;;;4.50;1.43;;;;;;;4.96;58.39;95951.53;5070220;28;20812;-83
2022/02/06 03:45:40;;;;;;;4.47;1.40;;;;;;;5.05;58.10;95960.13;5070633;28;20231;-85
2022/02/06 03:48:15;;;;;;;4.03;1.30;;;;;;;5.02;58.09;95947.63;5069641;28;20212;-83
2022/02/06 03:50:47;;;;;;;3.83;1.50;;;;;;;4.91;58.29;95948.56;5065032;28;20230;-83
2022/02/06 03:53:15;;;;;;;2.33;1.30;;;;;;;4.90;58.04;95946.16;5070221;28;20201;-83
2022/02/06 03:55:42;;;;;;;3.33;1.20;;;;;;;4.80;58.60;95941.84;5070374;28;20289;-83
2022/02/06 03:58:08;;;;;;;2.03;1.30;;;;;;;4.82;58.56;95941.69;5069715;28;20232;-82
2022/02/06 04:00:37;;;;;;;4.33;1.53;;;;;;;4.77;58.60;95938.75;5064418;28;20197;-83
2022/02/06 04:03:04;;;;;;;4.23;1.40;;;;;;;4.75;58.91;95946.53;5070619;28;20262;-83
2022/02/06 04:05:30;;;;;;;3.23;2.20;;;;;;;4.77;58.84;95936.19;5070526;28;20296;-83
2022/02/06 04:07:57;;;;;;;3.57;1.50;;;;;;;4.75;58.47;95931.22;5069877;28;20266;-82
2022/02/06 04:10:31;;;;;;;1.10;1.00;;;;;;;4.66;59.20;95928.66;5069226;28;20231;-83
2022/02/06 04:13:00;;;;;;;3.13;1.30;;;;;;;4.69;58.79;95924.09;5070159;28;20197;-83
2022/02/06 04:15:36;;;;;;;1.47;1.20;;;;;;;4.71;58.97;95912.03;5069173;28;20193;-82
2022/02/06 04:18:10;;;;;;;2.93;1.37;;;;;;;4.66;59.16;95921.81;5069689;28;20680;-82
2022/02/06 04:20:37;;;;;;;4.00;1.20;;;;;;;4.71;58.78;95908.66;5063554;28;20692;-83
2022/02/06 04:23:04;;;;;;;2.03;1.30;;;;;;;4.69;58.89;95905.44;5069620;28;20193;-83
2022/02/06 04:25:30;;;;;;;1.20;1.10;;;;;;;4.61;59.50;95900.22;5069874;28;20197;-83
2022/02/06 04:27:56;;;;;;;1.67;1.23;;;;;;;4.64;59.51;95899.91;5069766;28;20270;-83
2022/02/06 04:30:23;;;;;;;1.43;1.20;;;;;;;4.59;59.52;95895.25;5069110;28;20632;-83
2022/02/06 04:32:49;;;;;;;2.37;1.20;;;;;;;4.54;60.06;95892.28;5070240;28;20197;-83
2022/02/06 04:35:19;;;;;;;3.30;1.20;;;;;;;4.45;59.98;95890.50;5069307;28;20265;-82
2022/02/06 04:37:59;;;;;;;2.73;1.20;;;;;;;4.47;60.20;95888.63;5070034;28;20220;-83
2022/02/06 04:40:40;;;;;;;3.70;1.33;;;;;;;4.54;60.25;95882.06;5069344;28;20620;-83
2022/02/06 04:43:28;;;;;;;3.37;1.10;;;;;;;4.52;60.08;95878.84;5070220;28;20203;-83
2022/02/06 04:52:08;;;;;;;1.83;1.10;;;;;;;4.22;61.58;95859.34;5128802;27;21088;-83
2022/02/06 05:19:54;;;;;;;1.60;1.07;;;;;;;4.43;60.60;95826.88;5036823;28;20230;-83
2022/02/06 05:25:35;;;;;;;3.87;1.20;;;;;;;4.41;60.22;95828.78;5026212;28;20297;-83
2022/02/06 05:28:22;;;;;;;4.33;1.17;;;;;;;4.41;60.73;95817.78;5085915;28;20212;-83
2022/02/06 05:30:52;;;;;;;2.80;1.00;;;;;;;4.44;60.46;95805.56;5101269;28;20218;-83
2022/02/06 05:33:18;;;;;;;3.50;1.30;;;;;;;4.50;59.89;95809.34;5105857;28;20735;-83
2022/02/06 05:35:45;;;;;;;1.07;0.97;;;;;;;4.48;59.57;95804.38;5106688;28;20187;-83
2022/02/06 05:38:11;;;;;;;1.57;1.00;;;;;;;4.60;59.33;95788.94;5105854;28;20591;-83
2022/02/06 05:40:39;;;;;;;3.20;1.20;;;;;;;4.57;59.14;95805.31;5106983;28;20192;-84
2022/02/06 05:43:05;;;;;;;1.77;0.90;;;;;;;4.62;59.07;95810.78;5107034;28;20196;-84
2022/02/06 05:45:32;;;;;;;4.27;1.00;;;;;;;4.74;58.54;95804.63;5106265;28;20218;-84
2022/02/06 05:47:58;;;;;;;2.80;1.10;;;;;;;4.78;58.18;95821.28;5106976;28;20691;-83
2022/02/06 05:50:25;;;;;;;1.63;0.90;;;;;;;4.75;58.02;95803.69;5105339;28;20323;-83
2022/02/06 05:52:51;;;;;;;2.33;1.00;;;;;;;4.73;57.97;95805.56;5106664;28;20192;-83
2022/02/06 05:55:18;;;;;;;2.07;1.10;;;;;;;4.81;58.03;95807.47;5106114;28;20249;-84
2022/02/06 05:57:46;;;;;;;1.73;1.07;;;;;;;4.71;57.66;95806.66;5106970;28;20273;-85
2022/02/06 06:00:14;;;;;;;1.63;1.10;;;;;;;4.76;57.99;95807.06;5091167;28;20266;-84
2022/02/06 06:02:40;;;;;;;2.47;0.93;;;;;;;4.81;57.13;95810.78;5075923;28;20208;-83
2022/02/06 06:05:07;;;;;;;1.23;1.13;;;;;;;4.88;57.06;95816.16;5074847;28;20196;-83
2022/02/06 06:07:34;;;;;;;3.83;1.97;;;;;;;4.98;56.89;95805.97;5083380;28;20764;-83
2022/02/06 06:10:00;;;;;;;1.10;1.00;;;;;;;4.94;57.07;95802.88;5076466;28;20237;-83
2022/02/06 06:12:27;;;;;;;2.33;1.03;;;;;;;4.89;56.98;95814.41;5075954;28;20652;-83
2022/02/06 06:14:55;;;;;;;2.87;1.00;;;;;;;4.90;57.19;95813.47;5074758;28;20193;-83
2022/02/06 06:17:22;;;;;;;1.50;0.97;;;;;;;4.92;56.80;95809.06;5076195;28;20217;-82
2022/02/06 06:19:48;;;;;;;2.20;1.20;;;;;;;4.89;56.81;95809.31;5074484;28;20217;-82
2022/02/06 06:22:18;;;;;;;4.47;1.10;;;;;;;4.83;56.85;95808.09;5077183;28;20193;-83
2022/02/06 06:24:45;;;;;;;1.67;1.03;;;;;;;4.95;56.42;95812.16;5061603;28;20315;-83
2022/02/06 06:27:12;;;;;;;2.03;1.00;;;;;;;4.91;56.60;95813.34;5054966;28;20305;-83
2022/02/06 06:29:39;;;;;;;1.37;1.00;;;;;;;4.91;56.45;95810.00;5077857;28;20253;-83
2022/02/06 06:32:08;;;;;;;2.57;1.17;;;;;;;4.98;56.53;95816.16;5091870;28;20246;-83
2022/02/06 06:34:34;;;;;;;5.53;1.33;;;;;;;5.04;56.25;95813.88;5091736;28;20249;-83
2022/02/06 06:37:00;;;;;;;1.67;1.00;;;;;;;5.11;56.35;95809.84;5092060;28;20219;-83
2022/02/06 06:39:36;;;;;;;0.80;0.80;;;;;;;5.05;56.58;95805.25;5083027;28;21190;-84
2022/02/06 06:42:03;;;;;;;2.00;1.07;;;;;;;5.05;56.17;95822.31;5089126;28;20196;-83
2022/02/06 06:44:30;;;;;;;1.70;1.20;;;;;;;5.03;56.72;95804.59;5086919;28;20226;-84
2022/02/06 06:46:56;;;;;;;1.33;0.87;;;;;;;5.12;56.08;95801.22;5089169;28;20285;-83
2022/02/06 06:49:24;;;;;;;1.67;1.20;;;;;;;5.11;56.08;95799.63;5086828;28;20306;-83
2022/02/06 06:51:50;;;;;;;2.00;0.90;;;;;;;5.12;56.36;95802.97;5084034;28;20366;-84
2022/02/06 06:54:21;;;;;;;2.30;0.97;;;;;;;5.11;56.34;95793.72;5077091;28;20196;-82
2022/02/06 06:56:54;;;;;;;3.23;1.20;;;;;;;5.27;57.13;95799.03;5078749;28;20208;-84
2022/02/06 06:59:30;;;;;;;2.33;1.00;;;;;;;5.15;56.20;95795.84;5081280;28;20227;-83
2022/02/06 07:02:16;;;;;;;2.33;1.00;;;;;;;5.16;56.38;95801.78;5075819;28;20232;-84
2022/02/06 07:04:44;;;;;;;1.77;1.03;;;;;;;5.14;56.26;95790.88;5078566;28;20197;-84
2022/02/06 07:07:11;;;;;;;2.07;0.90;;;;;;;5.20;55.92;95790.31;5078978;28;20220;-81
2022/02/06 07:09:37;;;;;;;3.97;1.00;;;;;;;5.26;55.71;95788.97;5087069;28;20224;-83
2022/02/06 07:12:10;;;;;;;2.03;1.10;;;;;;;5.19;55.83;95792.09;5090122;28;20600;-81
2022/02/06 07:14:37;;;;;;;4.13;1.13;;;;;;;5.25;56.00;95779.69;5080721;28;20227;-84
2022/02/06 07:17:04;;;;;;;1.43;1.00;;;;;;;5.20;55.59;95791.13;5077557;28;20223;-84
2022/02/06 07:19:30;;;;;;;2.13;1.27;;;;;;;5.17;55.88;95785.50;5072812;28;20251;-84
2022/02/06 07:21:59;;;;;;;2.53;1.07;;;;;;;5.18;56.08;95775.16;5072926;28;20610;-84
2022/02/06 07:24:27;;;;;;;1.67;1.10;;;;;;;5.27;55.68;95772.72;5072844;28;20899;-85
2022/02/06 07:26:57;;;;;;;2.37;1.07;;;;;;;5.27;55.77;95778.63;5073128;28;20227;-84
2022/02/06 07:29:24;;;;;;;1.43;1.07;;;;;;;5.19;55.42;95766.56;5072349;28;20221;-85
2022/02/06 07:31:51;;;;;;;0.80;0.80;;;;;;;5.24;55.61;95773.78;5072371;28;20224;-84
2022/02/06 07:34:18;;;;;;;2.67;1.17;;;;;;;5.27;55.56;95759.94;5072386;28;20196;-84
2022/02/06 07:36:44;;;;;;;4.10;1.47;;;;;;;5.18;55.30;95746.28;5072561;28;20232;-84
2022/02/06 07:39:12;;;;;;;2.07;1.10;;;;;;;5.28;55.00;95752.16;5079096;28;20224;-84
2022/02/06 07:41:38;;;;;;;2.40;1.13;;;;;;;5.22;54.83;95752.69;5091354;28;20258;-83
2022/02/06 07:44:06;;;;;;;1.87;1.00;;;;;;;5.26;54.52;95748.13;5091970;28;20200;-84
2022/02/06 07:46:41;;;;;;;1.57;1.00;;;;;;;5.25;54.12;95749.88;5092008;28;20691;-85
2022/02/06 07:49:08;;;;;;;0.97;0.87;;;;;;;5.25;54.08;95742.22;5091807;28;20257;-85
2022/02/06 07:51:35;;;;;;;1.33;0.80;;;;;;;5.18;54.32;95741.19;5092441;28;20227;-85
2022/02/06 07:54:01;;;;;;;1.43;0.93;;;;;;;5.20;54.52;95734.97;5092075;28;20204;-85
2022/02/06 07:56:29;;;;;;;2.23;1.30;;;;;;;5.30;54.23;95731.59;5093048;28;20200;-86
2022/02/06 07:58:55;;;;;;;1.57;1.20;;;;;;;5.45;53.83;95731.00;5092125;28;20203;-84
2022/02/06 08:01:22;;;;;;;2.20;1.10;;;;;;;5.47;53.75;95728.28;5091761;28;20192;-85
2022/02/06 08:03:48;;;;;;;2.20;1.07;;;;;;;5.57;53.20;95731.63;5091783;28;20624;-85
2022/02/06 08:06:15;;;;;;;2.40;0.97;;;;;;;5.81;52.69;95720.84;5092774;28;20192;-85
2022/02/06 08:08:42;;;;;;;3.20;1.20;;;;;;;6.42;51.34;95738.88;5092913;28;20216;-85
2022/02/06 08:11:12;;;;;;;2.27;1.40;;;;;;;6.80;50.04;95737.75;5091147;28;20300;-84
2022/02/06 08:13:43;;;;;;;2.30;1.00;;;;;;;7.13;49.57;95750.75;5092691;28;20200;-84
2022/02/06 08:16:10;;;;;;;3.37;1.10;;;;;;;7.43;48.21;95739.25;5091255;28;20659;-82
2022/02/06 08:18:40;;;;;;;2.97;1.27;;;;;;;7.85;47.77;95740.06;5091933;28;20648;-85
2022/02/06 08:21:07;;;;;;;3.57;1.07;;;;;;;8.23;46.99;95732.75;5100723;28;20717;-84
2022/02/06 08:23:34;;;;;;;1.87;1.23;;;;;;;8.50;46.51;95717.09;5092122;28;20199;-84
2022/02/06 08:26:00;;;;;;;1.20;0.93;;;;;;;8.46;46.23;95728.66;5091781;28;20200;-84
2022/02/06 08:28:27;;;;;;;2.90;1.00;;;;;;;8.28;46.40;95720.25;5092165;28;20746;-84
2022/02/06 08:30:55;;;;;;;2.57;0.90;;;;;;;8.53;46.52;95727.03;5091229;28;20265;-85
2022/02/06 08:33:22;;;;;;;2.90;1.20;;;;;;;8.45;46.79;95721.13;5090939;28;20196;-85
2022/02/06 08:35:49;;;;;;;2.00;0.97;;;;;;;8.71;46.67;95703.75;5090877;28;20650;-84
2022/02/06 08:38:16;;;;;;;2.13;1.50;;;;;;;8.76;45.77;95704.09;5092077;28;20222;-85
2022/02/06 08:40:42;;;;;;;3.63;1.00;;;;;;;8.40;46.21;95705.38;5090317;28;20192;-85
2022/02/06 08:43:09;;;;;;;2.93;1.10;;;;;;;8.59;46.26;95693.03;5091054;28;20192;-84
2022/02/06 08:45:36;;;;;;;2.20;0.93;;;;;;;8.60;46.51;95693.84;5090626;28;20199;-85
2022/02/06 08:48:06;;;;;;;1.53;0.90;;;;;;;8.37;46.56;95696.25;5091020;28;20261;-82
2022/02/06 08:50:33;;;;;;;4.00;1.60;;;;;;;8.18;46.55;95686.25;5090545;28;20250;-85
2022/02/06 08:53:00;;;;;;;2.43;1.20;;;;;;;8.50;46.17;95691.44;5090921;28;20223;-83
2022/02/06 08:55:27;;;;;;;1.67;1.20;;;;;;;8.16;46.30;95676.16;5090767;28;20200;-85
2022/02/06 08:58:00;;;;;;;3.20;1.00;;;;;;;8.06;47.04;95672.16;5113744;22;20232;-84
2022/02/06 09:00:26;;;;;;;2.13;1.10;;;;;;;8.22;46.69;95646.53;5091419;28;20703;-84
2022/02/06 09:02:53;;;;;;;4.00;1.10;;;;;;;8.39;46.41;95657.59;5077483;28;20196;-84
2022/02/06 09:05:23;;;;;;;2.23;1.23;;;;;;;8.32;46.41;95653.09;5077633;28;20204;-85
2022/02/06 09:07:49;;;;;;;4.80;1.80;;;;;;;8.13;46.50;95632.88;5075821;28;20216;-84
2022/02/06 09:10:19;;;;;;;3.17;1.17;;;;;;;8.03;46.92;95632.25;5075376;28;20280;-84
2022/02/06 09:12:50;;;;;;;2.50;1.10;;;;;;;7.80;47.34;95626.13;5076407;28;20390;-85
2022/02/06 09:15:17;;;;;;;1.57;1.00;;;;;;;7.58;47.39;95630.09;5075553;28;20197;-83
2022/02/06 09:17:44;;;;;;;2.27;1.07;;;;;;;7.48;48.04;95620.00;5075072;28;20240;-83
2022/02/06 09:20:12;;;;;;;2.63;1.00;;;;;;;7.41;48.28;95619.00;5074663;28;20193;-86
2022/02/06 09:22:43;;;;;;;2.67;1.03;;;;;;;7.22;48.70;95622.63;5075898;28;20197;-86
2022/02/06 09:25:10;;;;;;;2.33;1.10;;;;;;;7.20;49.03;95623.72;5083298;28;20197;-83
2022/02/06 09:27:36;;;;;;;1.63;0.93;;;;;;;7.28;48.61;95610.97;5081778;28;20217;-83
2022/02/06 09:30:04;;;;;;;3.13;1.10;;;;;;;7.24;48.58;95607.91;5073428;28;20195;-84
2022/02/06 09:37:23;;;;;;;3.33;1.00;;;;;;;7.32;49.31;95617.34;5077601;28;20215;-83
2022/02/06 09:39:51;;;;;;;3.17;1.13;;;;;;;7.35;49.00;95624.72;5079677;28;20672;-83
2022/02/06 09:42:20;;;;;;;4.00;1.23;;;;;;;7.41;48.36;95615.63;5077383;28;20212;-83
2022/02/06 09:44:48;;;;;;;1.90;1.37;;;;;;;7.40;48.60;95608.91;5077988;28;20189;-82
2022/02/06 09:47:17;;;;;;;3.63;1.10;;;;;;;7.43;48.67;95613.72;5077543;28;20193;-84
2022/02/06 09:49:43;;;;;;;3.70;2.47;;;;;;;7.52;47.94;95599.97;5076847;28;20280;-83
2022/02/06 09:52:13;;;;;;;2.73;0.93;;;;;;;7.39;47.88;95602.19;5078431;28;20267;-83
2022/02/06 09:54:39;;;;;;;1.97;1.10;;;;;;;7.45;47.63;95611.81;5078504;28;20223;-83
2022/02/06 09:57:11;;;;;;;1.80;1.10;;;;;;;7.70;47.44;95617.81;5078334;28;20192;-82
2022/02/06 09:59:40;;;;;;;1.23;0.90;;;;;;;7.89;47.02;95625.16;5077367;28;20205;-84
2022/02/06 10:02:08;;;;;;;1.83;1.10;;;;;;;8.08;46.29;95640.25;5078055;28;20609;-85
2022/02/06 10:04:37;;;;;;;1.73;1.10;;;;;;;8.22;46.27;95618.31;5079183;28;20253;-83
2022/02/06 10:07:08;;;;;;;3.43;1.30;;;;;;;8.41;46.25;95610.31;5080230;28;20192;-84
2022/02/06 10:09:39;;;;;;;1.90;1.20;;;;;;;8.51;45.88;95595.53;5078758;28;20240;-83
2022/02/06 10:12:11;;;;;;;2.20;1.10;;;;;;;8.49;45.58;95582.06;5075389;28;20838;-83
2022/02/06 10:14:38;;;;;;;1.80;1.10;;;;;;;8.51;45.69;95598.09;5077175;28;20204;-84
2022/02/06 10:17:06;;;;;;;2.17;1.10;;;;;;;8.64;45.47;95597.59;5078955;28;20193;-83
2022/02/06 10:19:35;;;;;;;2.40;1.30;;;;;;;8.89;45.64;95585.47;5079716;28;20228;-82
2022/02/06 10:22:22;;;;;;;3.83;1.37;;;;;;;8.94;45.14;95580.66;5075529;28;20197;-83
2022/02/06 10:24:58;;;;;;;2.40;1.10;;;;;;;8.90;44.71;95564.78;5079493;28;20215;-84
2022/02/06 10:27:48;;;;;;;3.37;1.07;;;;;;;8.76;44.52;95565.47;5079839;28;20264;-83
2022/02/06 10:30:29;;;;;;;2.10;1.10;;;;;;;8.91;44.86;95576.66;5076320;28;20227;-84
2022/02/06 10:32:58;;;;;;;2.33;1.23;;;;;;;9.17;44.92;95573.81;5076931;28;20220;-83
2022/02/06 10:35:26;;;;;;;2.60;1.10;;;;;;;9.15;44.45;95552.63;5077944;28;20239;-84
2022/02/06 10:37:55;;;;;;;1.70;1.13;;;;;;;8.87;44.40;95559.97;5076430;28;20745;-84
2022/02/06 10:40:25;;;;;;;3.10;1.20;;;;;;;8.85;44.79;95554.19;5091166;28;20250;-84
2022/02/06 10:42:53;;;;;;;1.30;1.00;;;;;;;8.93;45.02;95555.94;5098548;28;20191;-84
2022/02/06 10:45:21;;;;;;;2.37;1.07;;;;;;;8.79;44.82;95552.31;5098608;28;20192;-85
2022/02/06 10:47:49;;;;;;;2.83;1.20;;;;;;;8.60;45.43;95543.22;5097734;28;20212;-85
2022/02/06 10:50:17;;;;;;;1.30;0.93;;;;;;;8.80;45.59;95559.06;5083546;28;20232;-85
2022/02/06 10:52:46;;;;;;;2.40;1.20;;;;;;;8.70;45.92;95540.47;5078407;28;20220;-84
2022/02/06 10:55:21;;;;;;;1.43;1.00;;;;;;;8.56;46.03;95533.47;5077466;28;20193;-84
2022/02/06 10:57:57;;;;;;;1.73;1.27;;;;;;;8.56;45.96;95525.75;5076232;28;20364;-84
2022/02/06 11:00:29;;;;;;;3.00;2.17;;;;;;;8.57;46.00;95520.47;5088907;28;20219;-84
2022/02/06 11:03:21;;;;;;;3.23;1.20;;;;;;;8.65;46.13;95522.22;5097382;28;20196;-84
2022/02/06 11:05:50;;;;;;;2.47;1.10;;;;;;;8.60;46.34;95522.69;5098840;28;20216;-84
2022/02/06 11:08:26;;;;;;;2.00;1.10;;;;;;;8.59;46.01;95500.56;5098082;28;20223;-84
2022/02/06 11:10:59;;;;;;;1.57;1.27;;;;;;;8.53;45.92;95492.72;5066999;28;20771;-84
2022/02/06 11:13:31;;;;;;;4.73;1.10;;;;;;;8.54;45.93;95484.88;5075684;28;20193;-84
2022/02/06 11:16:04;;;;;;;1.57;1.00;;;;;;;8.28;46.26;95456.06;5076628;28;20204;-84
2022/02/06 11:18:34;;;;;;;2.13;1.10;;;;;;;8.25;46.62;95452.09;5077324;28;20219;-84
2022/02/06 11:21:02;;;;;;;2.13;1.00;;;;;;;8.35;46.38;95435.72;5095596;28;20220;-84
2022/02/06 11:23:47;;;;;;;3.17;1.30;;;;;;;8.44;46.09;95417.56;5095648;28;20206;-84
2022/02/06 11:26:17;;;;;;;1.60;1.20;;;;;;;8.28;46.57;95413.25;5096904;28;20711;-84
2022/02/06 11:28:48;;;;;;;1.27;0.80;;;;;;;8.20;46.77;95409.94;5093637;28;20622;-84
2022/02/06 11:31:18;;;;;;;3.87;1.17;;;;;;;8.24;46.97;95408.66;5096413;28;20203;-84
2022/02/06 11:33:48;;;;;;;3.33;1.30;;;;;;;8.20;46.41;95397.09;5096228;28;20196;-84
2022/02/06 11:36:22;;;;;;;3.53;1.20;;;;;;;8.17;46.68;95392.31;5094660;28;20200;-84
2022/02/06 11:45:10;;;;;;;2.47;1.40;;;;;;;8.11;47.42;95360.44;5080573;28;20266;-83
2022/02/06 11:47:42;;;;;;;3.33;1.20;;;;;;;8.10;46.74;95363.16;5085659;28;20235;-83
2022/02/06 11:50:11;;;;;;;1.53;1.30;;;;;;;8.01;46.30;95375.22;5057631;28;20202;-84
2022/02/06 11:52:57;;;;;;;6.00;3.67;;;;;;;7.96;45.43;95370.59;5056949;28;20231;-84
2022/02/06 11:55:35;;;;;;;2.10;1.20;;;;;;;7.96;45.94;95356.97;5056837;28;20201;-83
2022/02/06 11:58:25;;;;;;;1.83;1.07;;;;;;;7.88;45.59;95354.44;5075820;28;20232;-83
2022/02/06 12:01:25;;;;;;;1.97;1.10;;;;;;;7.75;45.57;95377.22;5084392;28;20188;-83
2022/02/06 12:03:56;;;;;;;3.03;1.13;;;;;;;7.73;45.61;95372.25;5079674;28;20201;-83
2022/02/06 12:06:25;;;;;;;1.70;1.17;;;;;;;7.67;45.59;95338.81;5081192;28;20224;-83
2022/02/06 12:09:11;;;;;;;1.70;0.83;;;;;;;7.58;45.75;95336.25;5096467;28;20224;-83
2022/02/06 12:11:37;;;;;;;3.50;1.30;;;;;;;7.58;45.83;95320.09;5096909;28;20222;-84
2022/02/06 12:14:20;;;;;;;3.10;1.13;;;;;;;7.53;45.68;95335.94;5095906;28;20684;-84
2022/02/06 12:17:08;;;;;;;2.03;1.03;;;;;;;7.47;45.72;95315.31;5082682;28;20247;-85
2022/02/06 12:19:39;;;;;;;1.20;1.00;;;;;;;7.49;45.44;95301.41;5064615;28;20229;-84
2022/02/06 12:22:38;;;;;;;1.37;1.00;;;;;;;7.51;44.86;95299.44;5075548;28;20252;-84
2022/02/06 12:25:31;;;;;;;1.27;1.00;;;;;;;7.63;44.82;95305.84;5055729;28;20213;-84
2022/02/06 12:28:27;;;;;;;1.13;1.03;;;;;;;7.50;45.28;95294.50;5065902;28;20260;-83
2022/02/06 12:31:26;;;;;;;1.73;1.00;;;;;;;7.56;45.76;95304.09;5026377;28;20228;-84
2022/02/06 12:33:59;;;;;;;1.47;1.00;;;;;;;7.78;51.31;95294.88;5073289;28;20234;-82
2022/02/06 12:37:07;;;;;;;1.83;1.10;;;;;;;8.16;48.63;95283.81;5072148;28;20220;-82
2022/02/06 12:39:37;;;;;;;2.10;1.23;;;;;;;8.39;49.79;95286.44;5071942;28;20227;-82
2022/02/06 12:42:09;;;;;;;3.43;1.30;;;;;;;8.63;47.75;95275.22;5071590;28;20193;-83
2022/02/06 12:44:38;;;;;;;2.10;1.03;;;;;;;8.44;45.45;95279.03;5072990;28;20197;-84
2022/02/06 12:47:13;;;;;;;1.80;1.10;;;;;;;8.10;45.98;95258.03;5072921;28;20258;-83
2022/02/06 12:49:43;;;;;;;1.63;0.90;;;;;;;7.96;46.25;95250.09;5074042;28;20212;-84
2022/02/06 12:52:09;;;;;;;2.33;0.90;;;;;;;8.03;46.28;95239.19;5073673;28;20221;-84
2022/02/06 12:54:36;;;;;;;0.90;0.80;;;;;;;7.90;46.18;95245.63;5074047;28;20262;-84
2022/02/06 12:57:02;;;;;;;1.00;0.80;;;;;;;7.83;46.14;95234.47;5073604;28;20699;-84
2022/02/06 12:59:32;;;;;;;1.07;0.80;;;;;;;7.87;46.14;95228.06;5074569;28;20228;-84
2022/02/06 13:02:00;;;;;;;2.93;1.00;;;;;;;7.75;46.97;95229.38;5074911;28;20197;-84
2022/02/06 13:04:30;;;;;;;2.20;1.00;;;;;;;7.73;47.21;95228.75;5073657;28;20201;-84
2022/02/06 13:07:04;;;;;;;0.87;0.87;;;;;;;7.66;47.79;95219.34;5074138;28;20229;-85
2022/02/06 13:09:36;;;;;;;2.27;0.93;;;;;;;7.58;48.03;95202.25;5074628;28;20229;-85
2022/02/06 13:12:10;;;;;;;1.20;0.90;;;;;;;7.61;48.30;95207.84;5075986;28;20308;-84
2022/02/06 13:14:52;;;;;;;1.53;0.93;;;;;;;7.63;48.53;95189.75;5078092;28;20254;-84
2022/02/06 13:17:32;;;;;;;2.00;0.90;;;;;;;7.65;48.59;95205.75;5078036;28;20234;-85
2022/02/06 13:20:12;;;;;;;1.10;1.00;;;;;;;7.64;48.49;95193.91;5079027;28;20283;-84